Contact Info

Augusta Flying Club, Inc

KDNL 192253Z AUTO 02008KT 10SM CLR 15/M04 A3028 RMK AO2 SLP252 T01501039


TAF AMD KDNL 192046Z 1921/2018 03008KT P6SM SCT250 FM192300 04004KT P6SM SCT250 FM201400 04008KT P6SM SKC

info@augustaflyingclub.com

Send us a message